sensor_id;sensor_type;location;lat;lon;timestamp;P1;durP1;ratioP1;P2;durP2;ratioP2
26908;SDS011;14477;51.038;4.588;2023-03-01T00:00:39;5.32;;;3.08;;
26908;SDS011;14477;51.038;4.588;2023-03-01T00:03:04;5.15;;;2.90;;
26908;SDS011;14477;51.038;4.588;2023-03-01T00:05:30;5.15;;;2.85;;
26908;SDS011;14477;51.038;4.588;2023-03-01T00:07:57;4.53;;;2.70;;
26908;SDS011;14477;51.038;4.588;2023-03-01T00:10:23;5.13;;;2.67;;
26908;SDS011;14477;51.038;4.588;2023-03-01T00:12:48;4.80;;;2.58;;
26908;SDS011;14477;51.038;4.588;2023-03-01T00:15:14;4.43;;;2.73;;
26908;SDS011;14477;51.038;4.588;2023-03-01T00:17:40;4.13;;;2.55;;
26908;SDS011;14477;51.038;4.588;2023-03-01T00:20:06;4.40;;;2.70;;
26908;SDS011;14477;51.038;4.588;2023-03-01T00:22:35;5.13;;;2.93;;
26908;SDS011;14477;51.038;4.588;2023-03-01T00:25:02;3.97;;;2.58;;
26908;SDS011;14477;51.038;4.588;2023-03-01T00:27:28;4.82;;;2.65;;
26908;SDS011;14477;51.038;4.588;2023-03-01T00:29:54;5.40;;;2.80;;
26908;SDS011;14477;51.038;4.588;2023-03-01T00:32:20;5.68;;;2.60;;
26908;SDS011;14477;51.038;4.588;2023-03-01T00:34:45;4.75;;;2.90;;
26908;SDS011;14477;51.038;4.588;2023-03-01T00:37:19;5.13;;;2.73;;
26908;SDS011;14477;51.038;4.588;2023-03-01T00:39:46;3.90;;;2.63;;
26908;SDS011;14477;51.038;4.588;2023-03-01T00:42:12;6.78;;;2.70;;
26908;SDS011;14477;51.038;4.588;2023-03-01T00:44:38;4.80;;;2.53;;
26908;SDS011;14477;51.038;4.588;2023-03-01T00:47:03;4.60;;;2.58;;
26908;SDS011;14477;51.038;4.588;2023-03-01T00:49:29;4.80;;;2.53;;
26908;SDS011;14477;51.038;4.588;2023-03-01T00:51:55;5.47;;;2.80;;
26908;SDS011;14477;51.038;4.588;2023-03-01T00:54:21;6.15;;;2.78;;
26908;SDS011;14477;51.038;4.588;2023-03-01T00:56:46;5.83;;;3.10;;
26908;SDS011;14477;51.038;4.588;2023-03-01T00:59:12;4.85;;;2.67;;
26908;SDS011;14477;51.038;4.588;2023-03-01T01:01:38;5.77;;;3.00;;
26908;SDS011;14477;51.038;4.588;2023-03-01T01:04:06;5.93;;;2.90;;
26908;SDS011;14477;51.038;4.588;2023-03-01T01:06:41;5.57;;;3.13;;
26908;SDS011;14477;51.038;4.588;2023-03-01T01:09:09;5.38;;;2.80;;
26908;SDS011;14477;51.038;4.588;2023-03-01T01:11:44;5.72;;;2.80;;
26908;SDS011;14477;51.038;4.588;2023-03-01T01:14:11;4.67;;;2.67;;
26908;SDS011;14477;51.038;4.588;2023-03-01T01:16:38;5.53;;;2.50;;
26908;SDS011;14477;51.038;4.588;2023-03-01T01:19:04;5.13;;;2.97;;
26908;SDS011;14477;51.038;4.588;2023-03-01T01:21:30;4.63;;;2.50;;
26908;SDS011;14477;51.038;4.588;2023-03-01T01:23:57;5.57;;;3.15;;
26908;SDS011;14477;51.038;4.588;2023-03-01T01:26:24;4.43;;;2.60;;
26908;SDS011;14477;51.038;4.588;2023-03-01T01:28:51;4.70;;;2.63;;
26908;SDS011;14477;51.038;4.588;2023-03-01T01:31:18;5.68;;;3.00;;
26908;SDS011;14477;51.038;4.588;2023-03-01T01:33:44;4.10;;;2.50;;
26908;SDS011;14477;51.038;4.588;2023-03-01T01:36:10;5.17;;;2.80;;
26908;SDS011;14477;51.038;4.588;2023-03-01T01:38:37;4.30;;;2.50;;
26908;SDS011;14477;51.038;4.588;2023-03-01T01:41:04;4.43;;;2.50;;
26908;SDS011;14477;51.038;4.588;2023-03-01T01:43:34;4.95;;;2.33;;
26908;SDS011;14477;51.038;4.588;2023-03-01T01:46:22;5.53;;;2.78;;
26908;SDS011;14477;51.038;4.588;2023-03-01T01:48:55;4.23;;;2.50;;
26908;SDS011;14477;51.038;4.588;2023-03-01T01:51:32;5.78;;;2.85;;
26908;SDS011;14477;51.038;4.588;2023-03-01T01:54:13;5.15;;;2.83;;
26908;SDS011;14477;51.038;4.588;2023-03-01T01:56:44;4.80;;;2.67;;
26908;SDS011;14477;51.038;4.588;2023-03-01T01:59:14;5.72;;;2.92;;
26908;SDS011;14477;51.038;4.588;2023-03-01T02:01:40;5.20;;;2.80;;
26908;SDS011;14477;51.038;4.588;2023-03-01T02:04:07;4.35;;;2.53;;
26908;SDS011;14477;51.038;4.588;2023-03-01T02:06:37;5.22;;;2.60;;
26908;SDS011;14477;51.038;4.588;2023-03-01T02:09:11;5.30;;;2.75;;
26908;SDS011;14477;51.038;4.588;2023-03-01T02:11:39;4.47;;;2.40;;
26908;SDS011;14477;51.038;4.588;2023-03-01T02:14:05;5.00;;;2.80;;
26908;SDS011;14477;51.038;4.588;2023-03-01T02:16:31;4.55;;;2.35;;
26908;SDS011;14477;51.038;4.588;2023-03-01T02:18:58;4.55;;;2.50;;
26908;SDS011;14477;51.038;4.588;2023-03-01T02:27:00;4.63;;;2.22;;
26908;SDS011;14477;51.038;4.588;2023-03-01T02:29:26;4.10;;;2.47;;
26908;SDS011;14477;51.038;4.588;2023-03-01T02:31:53;4.68;;;2.38;;
26908;SDS011;14477;51.038;4.588;2023-03-01T02:34:22;4.82;;;2.42;;
26908;SDS011;14477;51.038;4.588;2023-03-01T02:36:54;3.97;;;2.30;;
26908;SDS011;14477;51.038;4.588;2023-03-01T02:39:34;3.90;;;2.38;;
26908;SDS011;14477;51.038;4.588;2023-03-01T02:42:12;4.10;;;2.38;;
26908;SDS011;14477;51.038;4.588;2023-03-01T02:44:41;4.40;;;2.40;;
26908;SDS011;14477;51.038;4.588;2023-03-01T02:47:07;5.20;;;2.43;;
26908;SDS011;14477;51.038;4.588;2023-03-01T02:49:34;5.18;;;2.70;;
26908;SDS011;14477;51.038;4.588;2023-03-01T02:57:24;5.07;;;2.60;;
26908;SDS011;14477;51.038;4.588;2023-03-01T02:59:52;5.60;;;2.80;;
26908;SDS011;14477;51.038;4.588;2023-03-01T03:02:25;5.30;;;2.40;;
26908;SDS011;14477;51.038;4.588;2023-03-01T03:05:03;4.55;;;2.42;;
26908;SDS011;14477;51.038;4.588;2023-03-01T03:07:38;5.75;;;2.67;;
26908;SDS011;14477;51.038;4.588;2023-03-01T03:10:06;4.88;;;2.90;;
26908;SDS011;14477;51.038;4.588;2023-03-01T03:12:34;6.60;;;2.87;;
26908;SDS011;14477;51.038;4.588;2023-03-01T03:15:00;4.95;;;2.60;;
26908;SDS011;14477;51.038;4.588;2023-03-01T03:17:26;5.67;;;2.73;;
26908;SDS011;14477;51.038;4.588;2023-03-01T03:19:51;5.05;;;2.50;;
26908;SDS011;14477;51.038;4.588;2023-03-01T03:22:17;4.90;;;2.77;;
26908;SDS011;14477;51.038;4.588;2023-03-01T03:24:43;5.30;;;2.88;;
26908;SDS011;14477;51.038;4.588;2023-03-01T03:27:08;5.27;;;2.87;;
26908;SDS011;14477;51.038;4.588;2023-03-01T03:29:34;4.97;;;2.75;;
26908;SDS011;14477;51.038;4.588;2023-03-01T03:32:00;5.03;;;2.63;;
26908;SDS011;14477;51.038;4.588;2023-03-01T03:34:26;5.17;;;2.80;;
26908;SDS011;14477;51.038;4.588;2023-03-01T03:36:55;5.00;;;2.85;;
26908;SDS011;14477;51.038;4.588;2023-03-01T03:39:22;5.50;;;3.00;;
26908;SDS011;14477;51.038;4.588;2023-03-01T03:41:48;4.68;;;2.70;;
26908;SDS011;14477;51.038;4.588;2023-03-01T03:44:14;5.20;;;2.88;;
26908;SDS011;14477;51.038;4.588;2023-03-01T03:46:40;5.03;;;2.70;;
26908;SDS011;14477;51.038;4.588;2023-03-01T03:49:06;5.35;;;2.83;;
26908;SDS011;14477;51.038;4.588;2023-03-01T03:51:31;4.80;;;2.60;;
26908;SDS011;14477;51.038;4.588;2023-03-01T03:53:57;4.93;;;2.70;;
26908;SDS011;14477;51.038;4.588;2023-03-01T03:56:23;4.57;;;2.50;;
26908;SDS011;14477;51.038;4.588;2023-03-01T03:58:52;4.00;;;2.30;;
26908;SDS011;14477;51.038;4.588;2023-03-01T04:01:18;4.53;;;2.42;;
26908;SDS011;14477;51.038;4.588;2023-03-01T04:03:44;5.30;;;2.83;;
26908;SDS011;14477;51.038;4.588;2023-03-01T04:06:13;4.73;;;2.63;;
26908;SDS011;14477;51.038;4.588;2023-03-01T04:08:39;4.18;;;2.55;;
26908;SDS011;14477;51.038;4.588;2023-03-01T04:11:06;5.18;;;2.70;;
26908;SDS011;14477;51.038;4.588;2023-03-01T04:13:51;4.13;;;2.33;;
26908;SDS011;14477;51.038;4.588;2023-03-01T04:16:17;4.43;;;2.45;;
26908;SDS011;14477;51.038;4.588;2023-03-01T04:18:44;4.80;;;2.60;;
26908;SDS011;14477;51.038;4.588;2023-03-01T04:21:09;4.80;;;2.60;;
26908;SDS011;14477;51.038;4.588;2023-03-01T04:23:36;4.75;;;2.22;;
26908;SDS011;14477;51.038;4.588;2023-03-01T04:26:03;5.32;;;2.85;;
26908;SDS011;14477;51.038;4.588;2023-03-01T04:28:33;4.37;;;2.63;;
26908;SDS011;14477;51.038;4.588;2023-03-01T04:31:06;3.67;;;2.30;;
26908;SDS011;14477;51.038;4.588;2023-03-01T04:36:33;4.72;;;2.38;;
26908;SDS011;14477;51.038;4.588;2023-03-01T04:39:00;4.63;;;2.20;;
26908;SDS011;14477;51.038;4.588;2023-03-01T04:41:36;4.32;;;2.22;;
26908;SDS011;14477;51.038;4.588;2023-03-01T04:44:08;4.63;;;2.42;;
26908;SDS011;14477;51.038;4.588;2023-03-01T04:46:34;4.82;;;2.45;;
26908;SDS011;14477;51.038;4.588;2023-03-01T04:49:01;5.28;;;2.40;;
26908;SDS011;14477;51.038;4.588;2023-03-01T04:51:28;4.43;;;2.60;;
26908;SDS011;14477;51.038;4.588;2023-03-01T04:53:54;4.28;;;2.35;;
26908;SDS011;14477;51.038;4.588;2023-03-01T04:56:20;4.45;;;2.60;;
26908;SDS011;14477;51.038;4.588;2023-03-01T04:58:48;4.18;;;2.15;;
26908;SDS011;14477;51.038;4.588;2023-03-01T05:01:18;4.90;;;2.40;;
26908;SDS011;14477;51.038;4.588;2023-03-01T05:03:49;3.63;;;2.23;;
26908;SDS011;14477;51.038;4.588;2023-03-01T05:06:16;5.72;;;2.45;;
26908;SDS011;14477;51.038;4.588;2023-03-01T05:08:43;4.07;;;2.40;;
26908;SDS011;14477;51.038;4.588;2023-03-01T05:11:09;4.10;;;2.30;;
26908;SDS011;14477;51.038;4.588;2023-03-01T05:13:37;4.68;;;2.30;;
26908;SDS011;14477;51.038;4.588;2023-03-01T05:16:04;4.07;;;2.20;;
26908;SDS011;14477;51.038;4.588;2023-03-01T05:18:31;4.30;;;2.35;;
26908;SDS011;14477;51.038;4.588;2023-03-01T05:21:03;4.32;;;2.45;;
26908;SDS011;14477;51.038;4.588;2023-03-01T05:23:30;4.50;;;2.15;;
26908;SDS011;14477;51.038;4.588;2023-03-01T05:26:00;4.38;;;2.17;;
26908;SDS011;14477;51.038;4.588;2023-03-01T05:28:27;4.60;;;2.53;;
26908;SDS011;14477;51.038;4.588;2023-03-01T05:30:54;3.83;;;2.13;;
26908;SDS011;14477;51.038;4.588;2023-03-01T05:33:20;4.20;;;2.15;;
26908;SDS011;14477;51.038;4.588;2023-03-01T05:35:47;4.45;;;2.50;;
26908;SDS011;14477;51.038;4.588;2023-03-01T05:38:14;4.35;;;2.40;;
26908;SDS011;14477;51.038;4.588;2023-03-01T05:40:43;4.50;;;2.27;;
26908;SDS011;14477;51.038;4.588;2023-03-01T05:43:11;4.70;;;2.50;;
26908;SDS011;14477;51.038;4.588;2023-03-01T05:45:38;4.30;;;2.30;;
26908;SDS011;14477;51.038;4.588;2023-03-01T05:48:05;4.93;;;2.30;;
26908;SDS011;14477;51.038;4.588;2023-03-01T05:50:33;4.10;;;2.40;;
26908;SDS011;14477;51.038;4.588;2023-03-01T05:53:04;4.90;;;2.50;;
26908;SDS011;14477;51.038;4.588;2023-03-01T05:55:41;5.00;;;2.90;;
26908;SDS011;14477;51.038;4.588;2023-03-01T05:58:10;4.05;;;2.47;;
26908;SDS011;14477;51.038;4.588;2023-03-01T06:00:41;5.40;;;2.60;;
26908;SDS011;14477;51.038;4.588;2023-03-01T06:03:10;4.05;;;2.33;;
26908;SDS011;14477;51.038;4.588;2023-03-01T06:05:37;4.83;;;2.73;;
26908;SDS011;14477;51.038;4.588;2023-03-01T06:08:04;5.03;;;2.58;;
26908;SDS011;14477;51.038;4.588;2023-03-01T06:10:30;4.05;;;2.45;;
26908;SDS011;14477;51.038;4.588;2023-03-01T06:12:56;5.05;;;2.85;;
26908;SDS011;14477;51.038;4.588;2023-03-01T06:15:22;6.23;;;2.70;;
26908;SDS011;14477;51.038;4.588;2023-03-01T06:17:48;4.75;;;2.70;;
26908;SDS011;14477;51.038;4.588;2023-03-01T06:20:18;4.53;;;2.42;;
26908;SDS011;14477;51.038;4.588;2023-03-01T06:22:46;4.32;;;2.50;;
26908;SDS011;14477;51.038;4.588;2023-03-01T06:25:13;5.18;;;2.60;;
26908;SDS011;14477;51.038;4.588;2023-03-01T06:27:40;4.77;;;2.47;;
26908;SDS011;14477;51.038;4.588;2023-03-01T06:30:11;5.22;;;2.47;;
26908;SDS011;14477;51.038;4.588;2023-03-01T06:32:39;4.78;;;2.55;;
26908;SDS011;14477;51.038;4.588;2023-03-01T06:35:09;4.53;;;2.60;;
26908;SDS011;14477;51.038;4.588;2023-03-01T06:37:36;4.90;;;2.63;;
26908;SDS011;14477;51.038;4.588;2023-03-01T06:40:04;4.60;;;2.53;;
26908;SDS011;14477;51.038;4.588;2023-03-01T06:42:36;6.25;;;2.83;;
26908;SDS011;14477;51.038;4.588;2023-03-01T06:45:04;4.82;;;2.80;;
26908;SDS011;14477;51.038;4.588;2023-03-01T06:47:30;6.35;;;2.97;;
26908;SDS011;14477;51.038;4.588;2023-03-01T06:49:58;6.70;;;3.10;;
26908;SDS011;14477;51.038;4.588;2023-03-01T06:52:24;6.85;;;3.40;;
26908;SDS011;14477;51.038;4.588;2023-03-01T06:54:50;6.13;;;3.03;;
26908;SDS011;14477;51.038;4.588;2023-03-01T06:57:16;6.65;;;3.08;;
26908;SDS011;14477;51.038;4.588;2023-03-01T06:59:42;5.43;;;3.03;;
26908;SDS011;14477;51.038;4.588;2023-03-01T07:02:11;4.60;;;2.58;;
26908;SDS011;14477;51.038;4.588;2023-03-01T07:04:37;5.60;;;2.90;;
26908;SDS011;14477;51.038;4.588;2023-03-01T07:07:04;4.97;;;2.63;;
26908;SDS011;14477;51.038;4.588;2023-03-01T07:09:30;6.00;;;2.55;;
26908;SDS011;14477;51.038;4.588;2023-03-01T07:11:56;5.63;;;2.70;;
26908;SDS011;14477;51.038;4.588;2023-03-01T07:14:23;5.75;;;3.13;;
26908;SDS011;14477;51.038;4.588;2023-03-01T07:16:54;5.22;;;2.90;;
26908;SDS011;14477;51.038;4.588;2023-03-01T07:19:20;5.47;;;2.80;;
26908;SDS011;14477;51.038;4.588;2023-03-01T07:21:47;4.32;;;2.38;;
26908;SDS011;14477;51.038;4.588;2023-03-01T07:24:13;5.47;;;2.65;;
26908;SDS011;14477;51.038;4.588;2023-03-01T07:26:39;4.72;;;2.63;;
26908;SDS011;14477;51.038;4.588;2023-03-01T07:29:05;4.90;;;2.60;;
26908;SDS011;14477;51.038;4.588;2023-03-01T07:31:33;5.53;;;2.75;;
26908;SDS011;14477;51.038;4.588;2023-03-01T07:33:58;4.68;;;2.80;;
26908;SDS011;14477;51.038;4.588;2023-03-01T07:36:24;6.57;;;3.00;;
26908;SDS011;14477;51.038;4.588;2023-03-01T07:38:50;4.97;;;2.65;;
26908;SDS011;14477;51.038;4.588;2023-03-01T07:41:16;5.40;;;3.00;;
26908;SDS011;14477;51.038;4.588;2023-03-01T07:43:42;5.20;;;3.07;;
26908;SDS011;14477;51.038;4.588;2023-03-01T07:46:08;4.97;;;2.97;;
26908;SDS011;14477;51.038;4.588;2023-03-01T07:48:34;4.82;;;2.92;;
26908;SDS011;14477;51.038;4.588;2023-03-01T07:51:01;4.50;;;2.97;;
26908;SDS011;14477;51.038;4.588;2023-03-01T07:53:28;5.53;;;3.08;;
26908;SDS011;14477;51.038;4.588;2023-03-01T07:56:09;5.95;;;2.90;;
26908;SDS011;14477;51.038;4.588;2023-03-01T07:58:37;4.10;;;2.80;;
26908;SDS011;14477;51.038;4.588;2023-03-01T08:01:05;6.75;;;3.45;;
26908;SDS011;14477;51.038;4.588;2023-03-01T08:03:32;4.30;;;2.77;;
26908;SDS011;14477;51.038;4.588;2023-03-01T08:05:59;4.32;;;2.67;;
26908;SDS011;14477;51.038;4.588;2023-03-01T08:08:26;4.88;;;3.10;;
26908;SDS011;14477;51.038;4.588;2023-03-01T08:10:51;4.95;;;3.03;;
26908;SDS011;14477;51.038;4.588;2023-03-01T08:13:17;4.23;;;2.80;;
26908;SDS011;14477;51.038;4.588;2023-03-01T08:15:48;4.05;;;2.85;;
26908;SDS011;14477;51.038;4.588;2023-03-01T08:18:14;4.80;;;3.30;;
26908;SDS011;14477;51.038;4.588;2023-03-01T08:20:43;4.43;;;3.17;;
26908;SDS011;14477;51.038;4.588;2023-03-01T08:23:09;4.35;;;3.20;;
26908;SDS011;14477;51.038;4.588;2023-03-01T08:25:35;3.95;;;2.95;;
26908;SDS011;14477;51.038;4.588;2023-03-01T08:28:01;4.57;;;3.45;;
26908;SDS011;14477;51.038;4.588;2023-03-01T08:30:27;4.23;;;3.10;;
26908;SDS011;14477;51.038;4.588;2023-03-01T08:32:53;5.18;;;3.72;;
26908;SDS011;14477;51.038;4.588;2023-03-01T08:35:20;5.05;;;3.63;;
26908;SDS011;14477;51.038;4.588;2023-03-01T08:37:46;4.88;;;3.70;;
26908;SDS011;14477;51.038;4.588;2023-03-01T08:40:12;5.27;;;3.80;;
26908;SDS011;14477;51.038;4.588;2023-03-01T08:42:39;5.95;;;4.13;;
26908;SDS011;14477;51.038;4.588;2023-03-01T08:45:06;5.88;;;3.90;;
26908;SDS011;14477;51.038;4.588;2023-03-01T08:47:32;7.38;;;4.07;;
26908;SDS011;14477;51.038;4.588;2023-03-01T08:49:59;5.27;;;3.93;;
26908;SDS011;14477;51.038;4.588;2023-03-01T08:52:25;5.57;;;4.03;;
26908;SDS011;14477;51.038;4.588;2023-03-01T08:54:51;5.47;;;3.80;;
26908;SDS011;14477;51.038;4.588;2023-03-01T08:57:17;5.38;;;3.95;;
26908;SDS011;14477;51.038;4.588;2023-03-01T08:59:43;4.85;;;3.70;;
26908;SDS011;14477;51.038;4.588;2023-03-01T09:02:14;4.93;;;3.20;;
26908;SDS011;14477;51.038;4.588;2023-03-01T09:04:41;5.30;;;3.85;;
26908;SDS011;14477;51.038;4.588;2023-03-01T09:07:08;5.80;;;3.88;;
26908;SDS011;14477;51.038;4.588;2023-03-01T09:09:34;6.15;;;3.97;;
26908;SDS011;14477;51.038;4.588;2023-03-01T09:12:00;5.55;;;3.83;;
26908;SDS011;14477;51.038;4.588;2023-03-01T09:14:27;6.50;;;4.43;;
26908;SDS011;14477;51.038;4.588;2023-03-01T09:16:53;5.78;;;4.15;;
26908;SDS011;14477;51.038;4.588;2023-03-01T09:19:19;6.10;;;4.03;;
26908;SDS011;14477;51.038;4.588;2023-03-01T09:21:45;5.10;;;3.60;;
26908;SDS011;14477;51.038;4.588;2023-03-01T09:24:18;6.07;;;4.07;;
26908;SDS011;14477;51.038;4.588;2023-03-01T09:26:48;6.15;;;4.40;;
26908;SDS011;14477;51.038;4.588;2023-03-01T09:29:15;5.40;;;3.83;;
26908;SDS011;14477;51.038;4.588;2023-03-01T09:31:41;5.60;;;4.13;;
26908;SDS011;14477;51.038;4.588;2023-03-01T09:34:08;6.53;;;4.65;;
26908;SDS011;14477;51.038;4.588;2023-03-01T09:36:34;6.33;;;4.40;;
26908;SDS011;14477;51.038;4.588;2023-03-01T09:39:00;5.80;;;4.22;;
26908;SDS011;14477;51.038;4.588;2023-03-01T09:44:49;6.38;;;4.25;;
26908;SDS011;14477;51.038;4.588;2023-03-01T09:47:19;5.45;;;3.92;;
26908;SDS011;14477;51.038;4.588;2023-03-01T09:50:04;5.97;;;4.10;;
26908;SDS011;14477;51.038;4.588;2023-03-01T09:55:36;6.32;;;3.85;;
26908;SDS011;14477;51.038;4.588;2023-03-01T10:01:10;5.15;;;3.90;;
26908;SDS011;14477;51.038;4.588;2023-03-01T10:04:02;5.43;;;3.43;;
26908;SDS011;14477;51.038;4.588;2023-03-01T10:06:57;5.57;;;3.83;;
26908;SDS011;14477;51.038;4.588;2023-03-01T10:09:29;5.47;;;4.05;;
26908;SDS011;14477;51.038;4.588;2023-03-01T10:11:59;5.93;;;4.60;;
26908;SDS011;14477;51.038;4.588;2023-03-01T10:19:52;7.05;;;4.22;;
26908;SDS011;14477;51.038;4.588;2023-03-01T10:22:22;6.13;;;4.30;;
26908;SDS011;14477;51.038;4.588;2023-03-01T10:24:59;6.53;;;4.78;;
26908;SDS011;14477;51.038;4.588;2023-03-01T10:32:48;5.70;;;4.28;;
26908;SDS011;14477;51.038;4.588;2023-03-01T10:35:18;5.40;;;3.70;;
26908;SDS011;14477;51.038;4.588;2023-03-01T10:38:09;5.40;;;4.07;;
26908;SDS011;14477;51.038;4.588;2023-03-01T10:40:52;5.10;;;3.88;;
26908;SDS011;14477;51.038;4.588;2023-03-01T10:43:19;4.67;;;3.80;;
26908;SDS011;14477;51.038;4.588;2023-03-01T10:45:46;5.57;;;4.22;;
26908;SDS011;14477;51.038;4.588;2023-03-01T10:48:13;5.60;;;4.18;;
26908;SDS011;14477;51.038;4.588;2023-03-01T10:50:42;5.10;;;4.00;;
26908;SDS011;14477;51.038;4.588;2023-03-01T10:56:14;6.00;;;3.80;;
26908;SDS011;14477;51.038;4.588;2023-03-01T10:58:41;5.43;;;4.18;;
26908;SDS011;14477;51.038;4.588;2023-03-01T11:01:26;6.70;;;4.60;;
26908;SDS011;14477;51.038;4.588;2023-03-01T11:06:33;5.47;;;3.78;;
26908;SDS011;14477;51.038;4.588;2023-03-01T11:09:20;5.00;;;3.90;;
26908;SDS011;14477;51.038;4.588;2023-03-01T11:11:54;4.88;;;3.85;;
26908;SDS011;14477;51.038;4.588;2023-03-01T11:14:21;5.05;;;4.00;;
26908;SDS011;14477;51.038;4.588;2023-03-01T11:16:57;4.53;;;3.55;;
26908;SDS011;14477;51.038;4.588;2023-03-01T11:19:26;5.50;;;4.00;;
26908;SDS011;14477;51.038;4.588;2023-03-01T11:27:17;4.55;;;3.67;;
26908;SDS011;14477;51.038;4.588;2023-03-01T11:29:49;5.80;;;4.05;;
26908;SDS011;14477;51.038;4.588;2023-03-01T11:32:25;4.90;;;3.70;;
26908;SDS011;14477;51.038;4.588;2023-03-01T11:35:08;4.97;;;3.70;;
26908;SDS011;14477;51.038;4.588;2023-03-01T11:40:29;5.40;;;4.07;;
26908;SDS011;14477;51.038;4.588;2023-03-01T11:43:02;4.38;;;3.58;;
26908;SDS011;14477;51.038;4.588;2023-03-01T11:48:44;4.47;;;3.47;;
26908;SDS011;14477;51.038;4.588;2023-03-01T11:54:47;4.78;;;3.85;;
26908;SDS011;14477;51.038;4.588;2023-03-01T12:10:52;5.57;;;4.28;;
26908;SDS011;14477;51.038;4.588;2023-03-01T12:19:33;5.03;;;3.40;;
26908;SDS011;14477;51.038;4.588;2023-03-01T12:28:21;5.30;;;3.90;;
26908;SDS011;14477;51.038;4.588;2023-03-01T12:37:30;4.40;;;3.60;;
26908;SDS011;14477;51.038;4.588;2023-03-01T12:45:44;5.00;;;3.70;;
26908;SDS011;14477;51.038;4.588;2023-03-01T12:51:01;4.47;;;3.45;;
26908;SDS011;14477;51.038;4.588;2023-03-01T12:53:35;4.55;;;3.55;;
26908;SDS011;14477;51.038;4.588;2023-03-01T12:56:27;6.90;;;4.20;;
26908;SDS011;14477;51.038;4.588;2023-03-01T13:02:21;5.15;;;3.90;;
26908;SDS011;14477;51.038;4.588;2023-03-01T13:04:53;4.82;;;3.40;;
26908;SDS011;14477;51.038;4.588;2023-03-01T13:08:31;6.25;;;3.85;;
26908;SDS011;14477;51.038;4.588;2023-03-01T13:10:39;5.03;;;3.67;;
26908;SDS011;14477;51.038;4.588;2023-03-01T13:13:19;4.60;;;3.45;;
26908;SDS011;14477;51.038;4.588;2023-03-01T13:15:47;4.72;;;3.53;;
26908;SDS011;14477;51.038;4.588;2023-03-01T13:20:47;4.60;;;3.72;;
26908;SDS011;14477;51.038;4.588;2023-03-01T13:31:09;4.75;;;3.75;;
26908;SDS011;14477;51.038;4.588;2023-03-01T13:34:02;4.80;;;3.45;;
26908;SDS011;14477;51.038;4.588;2023-03-01T13:46:44;4.90;;;3.22;;
26908;SDS011;14477;51.038;4.588;2023-03-01T13:49:11;3.93;;;3.20;;
26908;SDS011;14477;51.038;4.588;2023-03-01T13:51:41;4.22;;;3.40;;
26908;SDS011;14477;51.038;4.588;2023-03-01T13:54:11;5.20;;;3.80;;
26908;SDS011;14477;51.038;4.588;2023-03-01T13:56:38;5.35;;;3.72;;
26908;SDS011;14477;51.038;4.588;2023-03-01T13:59:18;4.50;;;3.60;;
26908;SDS011;14477;51.038;4.588;2023-03-01T14:01:58;4.53;;;3.53;;
26908;SDS011;14477;51.038;4.588;2023-03-01T14:04:29;5.75;;;3.60;;
26908;SDS011;14477;51.038;4.588;2023-03-01T14:07:13;4.82;;;3.58;;
26908;SDS011;14477;51.038;4.588;2023-03-01T14:09:44;5.50;;;3.70;;
26908;SDS011;14477;51.038;4.588;2023-03-01T14:15:10;5.27;;;3.97;;
26908;SDS011;14477;51.038;4.588;2023-03-01T14:18:04;4.55;;;3.55;;
26908;SDS011;14477;51.038;4.588;2023-03-01T14:20:43;5.13;;;3.55;;
26908;SDS011;14477;51.038;4.588;2023-03-01T14:23:18;5.55;;;4.28;;
26908;SDS011;14477;51.038;4.588;2023-03-01T14:25:49;6.07;;;4.10;;
26908;SDS011;14477;51.038;4.588;2023-03-01T14:28:38;4.50;;;3.53;;
26908;SDS011;14477;51.038;4.588;2023-03-01T14:31:25;5.25;;;3.80;;
26908;SDS011;14477;51.038;4.588;2023-03-01T14:33:56;5.30;;;3.80;;
26908;SDS011;14477;51.038;4.588;2023-03-01T14:36:29;6.13;;;3.75;;
26908;SDS011;14477;51.038;4.588;2023-03-01T14:38:56;4.88;;;3.85;;
26908;SDS011;14477;51.038;4.588;2023-03-01T14:41:33;5.43;;;4.00;;
26908;SDS011;14477;51.038;4.588;2023-03-01T14:44:02;5.65;;;3.92;;
26908;SDS011;14477;51.038;4.588;2023-03-01T14:46:35;5.25;;;3.83;;
26908;SDS011;14477;51.038;4.588;2023-03-01T14:51:57;5.25;;;3.60;;
26908;SDS011;14477;51.038;4.588;2023-03-01T14:56:58;5.05;;;3.63;;
26908;SDS011;14477;51.038;4.588;2023-03-01T14:59:25;6.43;;;4.50;;
26908;SDS011;14477;51.038;4.588;2023-03-01T15:01:53;7.03;;;4.50;;
26908;SDS011;14477;51.038;4.588;2023-03-01T15:04:22;6.03;;;4.47;;
26908;SDS011;14477;51.038;4.588;2023-03-01T15:06:52;5.57;;;4.10;;
26908;SDS011;14477;51.038;4.588;2023-03-01T15:09:20;5.10;;;3.85;;
26908;SDS011;14477;51.038;4.588;2023-03-01T15:11:47;5.53;;;4.03;;
26908;SDS011;14477;51.038;4.588;2023-03-01T15:14:26;6.05;;;4.22;;
26908;SDS011;14477;51.038;4.588;2023-03-01T15:17:35;4.97;;;3.63;;
26908;SDS011;14477;51.038;4.588;2023-03-01T15:20:02;5.23;;;3.43;;
26908;SDS011;14477;51.038;4.588;2023-03-01T15:22:29;5.75;;;3.70;;
26908;SDS011;14477;51.038;4.588;2023-03-01T15:24:55;5.38;;;3.65;;
26908;SDS011;14477;51.038;4.588;2023-03-01T15:27:22;5.22;;;3.60;;
26908;SDS011;14477;51.038;4.588;2023-03-01T15:29:51;4.90;;;3.30;;
26908;SDS011;14477;51.038;4.588;2023-03-01T15:32:25;4.90;;;3.20;;
26908;SDS011;14477;51.038;4.588;2023-03-01T15:34:56;5.35;;;3.63;;
26908;SDS011;14477;51.038;4.588;2023-03-01T15:40:16;4.85;;;3.10;;
26908;SDS011;14477;51.038;4.588;2023-03-01T15:43:03;4.57;;;3.20;;
26908;SDS011;14477;51.038;4.588;2023-03-01T15:45:31;5.80;;;3.70;;
26908;SDS011;14477;51.038;4.588;2023-03-01T15:48:03;6.05;;;3.60;;
26908;SDS011;14477;51.038;4.588;2023-03-01T15:50:34;4.85;;;3.30;;
26908;SDS011;14477;51.038;4.588;2023-03-01T15:53:05;5.55;;;3.50;;
26908;SDS011;14477;51.038;4.588;2023-03-01T15:55:39;6.23;;;3.33;;
26908;SDS011;14477;51.038;4.588;2023-03-01T15:58:08;4.60;;;3.10;;
26908;SDS011;14477;51.038;4.588;2023-03-01T16:00:37;5.40;;;3.60;;
26908;SDS011;14477;51.038;4.588;2023-03-01T16:03:04;5.75;;;3.40;;
26908;SDS011;14477;51.038;4.588;2023-03-01T16:05:31;5.55;;;3.30;;
26908;SDS011;14477;51.038;4.588;2023-03-01T16:08:00;4.30;;;2.90;;
26908;SDS011;14477;51.038;4.588;2023-03-01T16:10:26;4.18;;;2.88;;
26908;SDS011;14477;51.038;4.588;2023-03-01T16:12:52;4.20;;;2.78;;
26908;SDS011;14477;51.038;4.588;2023-03-01T16:15:21;4.28;;;2.80;;
26908;SDS011;14477;51.038;4.588;2023-03-01T16:17:52;4.30;;;3.05;;
26908;SDS011;14477;51.038;4.588;2023-03-01T16:20:18;3.77;;;2.77;;
26908;SDS011;14477;51.038;4.588;2023-03-01T16:22:44;4.03;;;2.75;;
26908;SDS011;14477;51.038;4.588;2023-03-01T16:25:11;5.18;;;3.25;;
26908;SDS011;14477;51.038;4.588;2023-03-01T16:27:41;6.50;;;3.70;;
26908;SDS011;14477;51.038;4.588;2023-03-01T16:30:08;5.18;;;3.33;;
26908;SDS011;14477;51.038;4.588;2023-03-01T16:32:41;5.63;;;3.13;;
26908;SDS011;14477;51.038;4.588;2023-03-01T16:35:09;5.63;;;3.63;;
26908;SDS011;14477;51.038;4.588;2023-03-01T16:37:37;4.93;;;3.20;;
26908;SDS011;14477;51.038;4.588;2023-03-01T16:40:05;5.40;;;3.42;;
26908;SDS011;14477;51.038;4.588;2023-03-01T16:42:35;4.75;;;2.95;;
26908;SDS011;14477;51.038;4.588;2023-03-01T16:45:02;4.30;;;3.10;;
26908;SDS011;14477;51.038;4.588;2023-03-01T16:47:29;4.63;;;2.90;;
26908;SDS011;14477;51.038;4.588;2023-03-01T16:49:55;4.47;;;2.75;;
26908;SDS011;14477;51.038;4.588;2023-03-01T16:52:21;4.63;;;3.00;;
26908;SDS011;14477;51.038;4.588;2023-03-01T16:54:48;5.18;;;2.90;;
26908;SDS011;14477;51.038;4.588;2023-03-01T16:57:14;5.10;;;2.93;;
26908;SDS011;14477;51.038;4.588;2023-03-01T16:59:40;4.05;;;2.50;;
26908;SDS011;14477;51.038;4.588;2023-03-01T17:02:06;4.72;;;2.60;;
26908;SDS011;14477;51.038;4.588;2023-03-01T17:04:36;4.75;;;2.75;;
26908;SDS011;14477;51.038;4.588;2023-03-01T17:07:02;4.23;;;2.57;;
26908;SDS011;14477;51.038;4.588;2023-03-01T17:09:28;4.72;;;2.90;;
26908;SDS011;14477;51.038;4.588;2023-03-01T17:11:54;3.80;;;2.47;;